Date,TemperatureHighF,TemperatureAvgF,TemperatureLowF,DewpointHighF,DewpointAvgF,DewpointLowF,HumidityHigh,HumidityAvg,HumidityLow,PressureMaxIn,PressureMinIn,WindSpeedMaxMPH,WindSpeedAvgMPH,GustSpeedMaxMPH,PrecipitationSumIn
2013-1-1,47.8,44.0,39.6,47.6,43.5,39.3,99,98,94,30.11,29.98,12,2,12,0.79
2013-1-2,52.5,39.1,37.0,42.8,37.7,34.9,99,95,74,30.18,29.67,12,3,12,0.00
2013-1-3,46.2,36.7,27.0,35.6,31.7,24.1,98,83,53,30.38,30.16,16,2,16,0.00
2013-1-4,48.9,32.9,23.9,32.2,26.1,22.2,99,78,50,31.11,29.89,14,2,14,0.00
2013-1-5,48.9,36.3,24.1,39.3,29.4,21.5,99,78,44,30.40,30.22,14,2,14,0.05
2013-1-6,51.6,41.4,34.5,43.4,38.4,29.4,99,90,66,30.31,30.02,16,4,16,0.05
2013-1-7,53.1,35.6,24.8,37.1,29.9,23.0,98,81,54,30.41,29.93,17,2,17,0.00
2013-1-8,59.2,40.1,26.6,47.1,35.5,24.8,99,85,63,30.40,29.97,13,2,13,0.00
2013-1-9,54.3,49.8,45.7,53.5,49.0,43.5,99,97,92,30.44,30.32,12,1,12,0.08
2013-1-10,64.6,53.5,48.7,59.8,52.3,31.8,99,96,81,30.43,30.07,33,4,33,0.01
2013-1-11,67.5,63.8,61.9,65.2,62.2,30.5,99,94,81,30.15,29.97,36,10,36,0.32
2013-1-12,70.3,66.1,40.6,67.4,64.0,40.4,99,93,83,30.13,29.81,18,7,18,0.02
2013-1-13,68.7,64.2,50.0,65.0,61.8,30.9,99,92,84,30.17,29.95,24,10,24,1.29
2013-1-14,49.8,42.4,37.6,49.6,42.0,22.9,99,98,97,30.36,30.08,14,5,14,1.50
2013-1-15,43.2,41.1,37.9,42.6,40.8,37.7,99,99,98,30.18,29.98,10,3,10,1.56
2013-1-16,48.7,44.0,40.8,48.5,43.6,36.8,99,98,97,30.12,29.93,8,2,8,0.15
2013-1-17,43.0,39.0,32.9,42.5,37.6,29.2,99,95,81,30.34,29.80,36,10,36,0.43
2013-1-18,51.6,35.4,27.0,36.9,30.8,26.2,99,85,50,30.54,30.33,12,2,12,0.01
2013-1-19,55.8,39.4,24.8,36.9,31.6,23.8,99,76,47,30.42,30.20,23,5,23,0.00
2013-1-20,62.4,43.5,33.1,43.2,35.8,29.8,96,76,47,30.22,30.11,12,2,12,0.00
2013-1-21,50.5,36.3,27.1,37.3,26.1,18.5,99,71,35,30.40,30.10,22,3,22,0.00
2013-1-22,52.5,30.1,23.0,18.6,11.6,4.2,72,48,27,30.38,30.22,17,4,17,0.00
2013-1-23,52.2,36.9,30.0,34.0,22.4,13.0,86,56,44,30.40,30.15,24,4,24,0.00
2013-1-24,54.1,36.2,25.5,40.7,23.4,8.6,94,62,28,30.38,30.16,20,5,20,0.00
2013-1-25,66.4,32.1,28.4,33.8,25.9,12.8,99,80,48,30.36,30.08,31,4,31,0.01
2013-1-26,51.8,37.3,30.6,39.6,34.3,30.1,99,90,62,30.33,30.18,12,2,12,0.00
2013-1-27,64.9,40.4,28.4,40.6,35.0,28.2,99,82,65,30.44,30.03,17,4,17,0.00
2013-1-28,57.4,49.8,45.0,50.4,43.0,26.7,95,78,66,30.40,30.10,20,7,20,0.01
2013-1-29,66.7,51.3,41.0,64.4,50.3,40.7,99,97,89,30.25,29.86,28,2,28,0.00
2013-1-30,66.9,58.0,39.4,66.3,56.4,36.5,99,94,80,29.86,29.56,41,14,41,1.82
2013-1-31,49.5,39.4,33.6,36.5,29.0,24.0,90,67,47,30.45,29.81,26,8,26,0.12
2013-2-1,44.1,30.7,21.7,36.1,18.9,11.3,86,62,38,30.43,30.06,20,6,20,0.00
2013-2-2,36.1,28.9,20.5,33.4,25.0,16.3,99,85,75,30.37,30.10,16,4,16,0.04
2013-2-3,55.9,38.8,28.2,41.3,32.4,23.1,99,80,47,30.19,30.02,24,5,24,0.00
2013-2-4,50.7,36.8,24.6,35.0,29.8,13.2,99,77,53,30.33,29.98,20,4,20,0.00
2013-2-5,63.9,48.4,39.7,48.5,41.8,33.8,99,79,51,30.04,29.94,20,4,20,0.02
2013-2-6,66.6,46.1,32.4,47.0,38.7,16.4,99,79,41,30.37,30.04,12,2,12,0.06
2013-2-7,53.1,46.4,41.2,46.3,42.2,38.3,98,86,66,30.14,29.95,8,1,8,0.01
2013-2-8,57.0,46.5,38.1,53.5,42.9,30.6,99,88,64,30.32,29.92,18,5,18,0.06
2013-2-9,58.5,42.4,29.8,37.6,33.5,27.3,93,73,44,30.41,30.22,16,5,16,0.00
2013-2-10,60.1,48.7,38.8,53.7,42.7,35.7,99,82,44,30.25,30.00,29,7,29,0.52
2013-2-11,58.3,52.0,41.9,56.9,48.2,39.4,99,88,56,30.15,29.99,26,5,26,0.01
2013-2-12,52.9,45.0,34.3,42.5,38.6,32.1,99,80,54,30.18,29.85,22,3,22,0.07
2013-2-13,49.1,42.9,28.8,47.8,41.5,28.5,99,95,82,30.40,29.72,22,3,22,0.12
2013-2-14,58.3,44.0,32.4,42.2,37.5,30.7,99,80,54,30.10,30.00,24,4,24,0.00
2013-2-15,60.4,43.3,32.2,46.3,37.5,15.5,99,81,57,30.37,30.01,24,4,24,0.00
2013-2-16,43.3,33.0,24.1,30.9,23.1,14.2,85,68,45,30.34,30.04,20,5,20,0.00
2013-2-17,55.0,30.6,16.9,23.9,18.4,12.1,86,63,31,30.30,30.02,24,3,24,0.00
2013-2-18,61.0,42.7,23.5,38.3,29.1,20.1,90,62,42,30.31,30.00,41,11,41,0.00
2013-2-19,58.3,44.8,34.5,49.7,34.0,17.9,99,70,29,30.22,29.96,41,9,41,0.44
2013-2-20,42.3,33.0,24.1,25.4,20.5,14.5,85,62,34,30.94,30.18,14,3,14,0.00
2013-2-21,53.8,38.9,26.4,40.6,27.8,18.6,99,67,34,30.24,29.96,14,4,14,0.56
2013-2-22,50.2,45.8,40.3,47.6,44.5,39.8,99,95,88,30.10,29.93,20,6,20,0.17
2013-2-23,57.0,47.4,38.8,51.6,46.0,38.4,99,95,81,30.04,29.85,14,2,14,0.18
2013-2-24,60.4,42.6,29.5,39.5,34.9,29.2,99,78,43,30.09,29.94,18,3,18,0.01
2013-2-25,57.2,45.6,35.1,46.4,36.3,29.3,85,71,52,30.10,29.76,14,3,14,0.00
2013-2-26,50.9,46.3,40.1,47.9,44.3,38.8,99,93,77,29.77,29.53,28,8,28,0.67
2013-2-27,55.4,44.7,39.9,40.8,37.7,34.2,97,77,57,29.90,29.75,28,10,28,0.00
2013-2-28,57.6,38.6,36.7,34.9,31.3,28.0,85,75,68,30.07,29.86,18,5,23,0.00
2013-3-1,41.4,37.6,34.7,35.2,32.4,28.8,94,81,73,30.06,29.97,12,2,12,0.00
2013-3-2,40.3,35.2,32.0,34.3,31.0,19.2,99,85,51,30.09,29.96,14,4,14,0.02
2013-3-3,41.4,31.9,24.1,27.9,23.9,19.7,84,73,53,30.11,30.05,17,4,17,0.00
2013-3-4,54.5,39.1,22.3,35.8,28.1,19.3,92,67,40,30.30,29.98,14,3,14,0.00
2013-3-5,57.2,47.5,36.9,54.6,43.7,28.7,99,87,65,30.03,29.65,29,7,29,0.67
2013-3-6,41.4,35.3,32.5,32.8,28.5,17.6,84,76,67,30.26,29.93,23,8,23,0.00
2013-3-7,47.8,37.4,28.9,36.6,30.7,22.5,91,77,55,30.35,30.21,17,6,17,0.00
2013-3-8,58.3,40.2,27.0,35.7,30.2,23.6,95,71,34,30.38,30.26,17,4,17,0.00
2013-3-9,60.8,47.9,32.7,45.2,35.4,29.2,97,65,44,30.31,29.98,21,4,21,0.00
2013-3-10,71.4,59.7,45.0,45.3,40.6,37.2,79,51,34,30.16,29.97,37,12,37,0.00
2013-3-11,61.5,55.8,40.3,56.4,51.8,40.0,99,87,57,30.00,29.74,40,13,40,0.79
2013-3-12,59.4,44.8,36.3,41.6,37.3,33.0,99,77,45,30.12,29.75,17,4,17,0.01
2013-3-13,51.1,39.3,29.5,37.4,30.1,21.7,99,72,44,30.34,29.76,18,5,18,0.00
2013-3-14,52.7,38.0,25.0,36.4,24.9,18.8,83,61,33,30.41,30.25,14,4,14,0.00
2013-3-15,73.8,51.8,30.2,51.7,41.6,30.0,99,72,43,30.27,29.94,30,6,30,0.00
2013-3-16,78.3,65.4,55.0,55.6,50.5,46.6,81,60,43,29.95,29.82,30,10,30,0.00
2013-3-17,73.8,62.6,52.0,58.5,52.5,48.1,90,70,50,29.98,24.43,26,7,26,0.00
2013-3-18,61.0,57.9,51.8,58.9,55.5,31.6,98,92,80,30.01,29.81,33,10,33,0.81
2013-3-19,63.7,49.9,34.2,53.3,38.1,25.4,99,69,30,30.14,29.82,20,5,20,0.01
2013-3-20,60.4,46.0,34.9,35.8,29.4,19.8,83,56,26,30.21,29.93,20,5,20,0.00
2013-3-21,47.3,35.0,24.1,30.2,20.2,13.7,82,56,34,30.05,29.94,18,5,18,0.00
2013-3-22,46.4,38.1,29.7,34.7,26.8,21.5,76,64,52,30.08,29.99,12,3,12,0.00
2013-3-23,54.7,45.3,38.1,48.4,42.3,30.2,99,90,70,30.24,29.77,13,3,13,0.18
2013-3-24,60.4,49.5,42.1,57.1,46.9,34.7,99,91,68,29.82,29.42,30,8,30,0.89
2013-3-25,64.9,36.6,33.1,34.7,28.3,25.8,80,72,65,30.08,29.68,31,10,31,0.00
2013-3-26,41.4,35.4,31.3,33.8,29.7,27.0,88,80,70,30.31,30.06,14,5,14,0.00
2013-3-27,55.4,39.7,25.9,35.9,30.2,24.4,99,72,40,30.36,30.11,18,4,18,0.00
2013-3-28,64.2,43.1,26.8,40.0,32.9,24.7,97,71,40,30.38,30.25,14,3,14,0.00
2013-3-29,72.7,43.1,31.8,44.0,37.3,30.7,99,81,55,30.37,29.97,22,4,22,0.00
2013-3-30,64.4,50.9,41.9,53.5,47.3,41.6,99,89,62,30.23,29.92,13,3,13,0.26
2013-3-31,72.0,57.9,53.2,61.2,56.3,52.5,99,95,75,29.99,29.86,18,5,18,0.24
2013-4-1,71.6,54.8,39.4,56.0,47.2,39.1,99,79,50,30.08,27.69,17,3,17,0.01
2013-4-2,62.1,47.8,35.6,41.6,33.3,26.4,85,60,34,30.26,29.92,14,4,14,0.00
2013-4-3,58.6,50.2,39.4,35.6,31.0,26.4,71,49,34,30.25,30.14,22,6,22,0.00
2013-4-4,50.7,43.5,40.3,44.3,41.9,34.2,99,95,53,30.33,29.98,8,3,8,1.10
2013-4-5,69.1,51.9,41.0,49.7,43.8,40.7,99,78,39,30.22,29.98,17,4,17,0.01
2013-4-6,73.8,56.6,36.7,49.1,43.7,35.7,99,67,39,30.21,29.93,26,6,26,0.00
2013-4-7,77.4,62.3,46.6,54.8,49.3,43.1,89,65,39,30.18,29.90,30,7,30,0.00
2013-4-8,77.7,64.1,50.7,61.1,55.4,49.6,98,75,53,30.11,30.01,28,6,28,0.00
2013-4-9,83.5,66.5,50.7,64.5,58.0,28.5,99,76,52,30.19,30.03,20,4,20,0.00
2013-4-10,85.5,70.4,54.1,65.9,60.1,31.4,99,73,36,30.19,29.88,24,5,24,0.00
2013-4-11,80.8,69.8,49.8,67.0,62.4,38.5,98,78,61,30.15,29.56,36,9,36,1.02
2013-4-12,69.8,59.1,47.8,62.5,50.5,44.2,99,76,42,29.97,29.60,23,6,23,0.09
2013-4-13,76.3,57.2,40.8,52.4,45.4,40.6,99,70,31,30.09,29.96,14,3,14,0.00
2013-4-14,68.9,54.0,43.9,56.4,49.8,43.0,99,87,45,30.20,29.93,29,3,29,0.05
2013-4-15,78.6,65.0,54.3,64.1,58.8,53.5,99,82,58,30.10,29.93,16,5,16,0.00
2013-4-16,82.0,69.6,59.4,69.7,64.0,57.3,96,83,64,30.24,30.10,22,5,22,0.00
2013-4-17,88.0,68.7,62.1,72.1,64.7,61.5,99,88,57,30.21,30.06,20,5,20,0.11
2013-4-18,84.7,70.7,57.7,66.9,62.3,55.8,99,77,51,30.07,29.81,41,10,41,0.00
2013-4-19,74.1,58.5,44.6,66.3,53.2,38.5,99,83,66,30.12,29.68,30,9,30,0.99
2013-4-20,66.9,49.0,33.4,43.7,38.6,33.0,99,72,36,30.27,29.97,16,3,16,0.00
2013-4-21,71.8,54.4,40.8,49.2,43.4,38.8,94,70,35,30.38,30.22,12,3,12,0.00
2013-4-22,74.5,57.7,41.7,53.1,47.6,27.8,99,73,41,30.34,29.67,17,3,17,0.00
2013-4-23,76.3,60.9,45.0,56.0,50.1,44.2,99,71,46,30.24,30.03,16,5,16,0.00
2013-4-24,70.0,60.4,45.9,64.5,55.3,32.3,97,84,59,30.36,30.03,39,8,39,0.06
2013-4-25,70.3,52.8,38.3,46.3,42.1,29.5,99,71,35,30.36,30.23,18,3,18,0.00
2013-4-26,74.3,56.3,40.1,55.6,45.3,39.5,99,71,36,30.40,29.69,13,3,13,0.02
2013-4-27,55.9,53.2,51.4,55.7,52.5,51.2,99,98,92,30.38,30.10,8,2,8,0.79
2013-4-28,59.9,57.0,52.3,59.6,56.7,51.8,99,99,97,30.11,29.91,23,4,23,1.55
2013-4-29,76.5,63.1,55.8,62.9,58.6,55.5,99,87,60,30.04,29.94,17,4,17,0.01
2013-4-30,81.0,63.8,48.7,64.6,57.8,48.5,99,83,52,30.21,29.97,16,2,16,0.00
2013-5-1,85.6,66.6,55.2,71.6,60.8,54.4,99,83,60,30.21,30.08,17,2,17,0.00
2013-5-2,79.2,65.1,52.9,66.8,60.0,52.3,99,85,54,30.19,29.96,16,2,16,0.00
2013-5-3,76.1,63.4,55.9,62.3,58.5,54.9,99,85,58,30.12,29.81,30,4,30,0.01
2013-5-4,63.5,55.5,52.7,56.9,53.6,33.4,98,94,74,30.25,29.88,18,1,18,2.26
2013-5-5,63.3,52.4,46.8,59.0,51.4,41.8,99,96,71,30.37,29.77,23,2,23,1.24
2013-5-6,61.2,51.4,44.6,54.3,49.8,43.8,99,94,75,29.92,29.78,20,4,20,0.08
2013-5-7,75.2,58.5,44.1,60.0,53.2,43.5,99,85,55,29.99,29.89,12,2,12,0.00
2013-5-8,77.7,61.7,51.3,67.2,58.8,51.0,99,91,62,30.10,29.95,14,2,14,0.06
2013-5-9,81.9,66.4,40.3,68.3,60.3,40.0,99,83,52,30.25,30.02,10,2,10,0.01
2013-5-10,74.3,66.3,57.2,64.9,61.2,39.8,99,85,68,30.39,29.95,20,5,20,0.00
2013-5-11,75.4,66.5,55.8,68.7,62.7,54.5,99,88,74,30.01,29.90,18,3,18,0.05
2013-5-12,68.9,57.4,47.3,54.6,46.1,40.1,98,69,38,30.16,29.94,16,4,16,0.04
2013-5-13,71.4,54.7,38.5,59.1,43.5,38.2,99,70,36,30.26,29.96,14,3,14,0.00
2013-5-14,82.6,62.4,42.1,62.0,52.3,41.8,99,73,46,30.26,30.05,29,6,29,0.00
2013-5-15,88.5,72.3,55.9,66.9,61.0,55.1,99,70,45,30.18,30.00,18,4,18,0.00
2013-5-16,85.5,69.9,58.5,68.5,62.8,56.9,99,80,51,30.14,29.97,17,3,17,0.00
2013-5-17,81.9,69.1,56.1,70.3,64.9,55.8,99,88,64,30.13,30.00,13,2,13,0.08
2013-5-18,78.8,69.4,61.2,73.9,67.8,55.4,99,95,83,30.07,29.93,17,6,17,0.38
2013-5-19,72.0,66.8,53.6,71.1,66.2,52.8,99,98,94,30.16,29.92,22,4,22,1.83
2013-5-20,86.0,68.3,51.3,75.1,65.1,51.0,99,91,65,30.14,29.81,13,2,13,0.01
2013-5-21,88.5,72.0,61.3,76.0,67.9,60.8,99,88,62,30.06,29.91,20,3,20,0.00
2013-5-22,86.0,70.4,63.3,74.5,67.5,62.5,99,92,60,29.97,29.88,24,3,24,0.58
2013-5-23,83.7,70.5,61.2,70.9,64.7,58.4,99,84,52,30.03,29.91,17,4,17,0.01
2013-5-24,74.3,63.1,53.8,64.7,55.4,49.2,99,78,53,30.26,30.03,26,4,26,0.00
2013-5-25,79.3,62.0,47.8,66.3,53.9,47.6,99,78,46,30.34,29.95,12,2,12,0.00
2013-5-26,81.7,65.2,53.1,63.0,57.8,52.5,99,79,50,30.29,30.17,10,2,10,0.00
2013-5-27,86.0,69.7,55.8,67.9,62.5,55.5,99,80,52,30.24,30.09,17,3,17,0.00
2013-5-28,87.3,73.8,62.1,68.8,65.6,61.5,99,78,52,30.19,30.08,23,5,23,0.00
2013-5-29,88.0,74.7,56.1,72.1,66.2,55.6,98,76,54,30.22,30.10,20,5,20,0.00
2013-5-30,84.2,74.5,63.9,72.5,68.1,63.0,99,81,65,30.23,30.09,18,6,18,0.00
2013-5-31,85.8,75.1,65.5,72.3,68.8,55.9,99,82,64,30.19,29.98,24,6,24,0.00
2013-6-1,84.9,75.1,69.1,76.4,70.7,67.0,97,87,70,30.08,29.96,24,8,24,0.30
2013-6-2,81.0,74.4,68.4,75.3,71.8,67.9,99,92,77,29.99,29.90,13,2,13,0.51
2013-6-3,83.8,71.6,63.5,73.1,67.2,49.2,99,87,64,30.32,29.91,12,2,12,0.00
2013-6-4,85.3,70.8,59.2,72.0,65.5,58.9,99,85,57,30.06,29.98,12,2,12,0.00
2013-6-5,83.1,69.1,63.3,76.3,67.6,62.5,99,95,59,30.17,29.92,20,2,20,0.69
2013-6-6,82.9,71.9,63.5,74.5,69.2,62.6,99,92,73,29.94,29.75,13,3,13,0.02
2013-6-7,84.4,70.9,64.6,74.7,68.9,53.6,99,94,69,30.10,29.73,10,1,10,0.31
2013-6-8,83.7,72.4,66.4,72.8,68.9,66.1,99,90,65,30.22,29.88,20,3,20,0.00
2013-6-9,83.1,71.7,66.0,75.6,70.2,65.7,99,95,76,30.14,29.98,22,3,22,0.11
2013-6-10,84.7,74.1,68.4,72.6,69.8,67.6,99,88,60,30.00,29.92,26,8,26,0.27
2013-6-11,91.2,77.2,68.5,77.7,73.1,68.2,99,88,62,30.06,29.99,12,2,12,0.05
2013-6-12,92.3,79.2,70.2,80.4,74.9,69.6,99,88,66,30.11,29.98,12,2,12,0.00
2013-6-13,91.0,79.2,70.5,79.9,74.0,61.0,99,85,66,30.05,29.78,24,5,24,0.00
2013-6-14,84.7,72.7,61.0,70.2,65.5,60.4,98,80,54,30.05,29.92,14,3,14,0.00
2013-6-15,87.1,73.3,61.0,70.8,65.9,60.4,99,80,54,30.15,30.04,14,3,14,0.00
2013-6-16,89.1,73.9,56.1,75.3,68.9,55.8,99,86,60,30.15,30.00,28,3,28,0.26
2013-6-17,86.5,73.1,68.7,76.7,70.9,68.0,99,93,70,30.06,29.93,20,2,20,0.43
2013-6-18,81.9,72.1,66.6,76.6,70.8,66.3,99,96,83,29.96,29.88,22,3,22,0.78
2013-6-19,86.5,73.1,63.0,73.8,68.6,62.1,99,87,62,30.08,29.95,8,1,8,0.00
2013-6-20,87.6,73.0,64.2,75.3,69.0,63.4,99,89,63,30.21,30.08,29,2,29,0.47
2013-6-21,85.3,73.0,65.3,74.9,69.6,65.0,99,90,65,30.27,30.15,8,1,8,0.01
2013-6-22,87.1,74.7,65.3,74.6,69.4,65.0,99,85,60,30.24,30.00,12,1,12,0.00
2013-6-23,87.3,74.6,64.8,76.2,70.5,64.5,99,88,65,30.22,30.08,18,2,18,0.00
2013-6-24,89.2,77.0,66.7,76.3,71.8,66.5,99,85,62,30.23,30.09,16,3,16,0.00
2013-6-25,86.9,76.2,71.1,77.8,73.2,70.4,98,91,69,30.18,30.03,13,2,13,0.01
2013-6-26,90.0,79.6,70.0,77.7,73.8,69.4,99,84,63,30.08,29.90,16,4,16,0.00
2013-6-27,90.3,79.9,73.9,78.7,74.5,71.1,99,84,67,29.96,29.82,24,5,24,0.00
2013-6-28,93.2,77.8,69.3,78.7,72.7,68.6,99,86,60,29.87,29.69,17,3,17,0.02
2013-6-29,87.4,76.0,68.0,74.8,69.2,66.4,99,82,52,29.74,29.67,12,2,12,0.11
2013-6-30,89.4,74.9,63.5,70.8,66.9,62.6,99,79,44,29.85,29.70,33,3,14,0.33
2013-7-1,80.2,70.2,63.1,74.6,68.7,62.3,99,95,78,30.04,29.80,36,1,36,0.81
2013-7-2,85.8,72.1,65.7,74.4,69.3,65.4,99,92,64,30.06,29.92,18,2,18,0.07
2013-7-3,79.3,69.8,67.6,72.3,69.2,67.3,99,98,92,30.16,30.02,22,1,22,0.90
2013-7-4,83.3,70.3,67.5,74.1,69.4,67.2,99,97,73,30.21,30.08,20,2,20,0.94
2013-7-5,75.0,71.9,69.3,72.4,70.2,68.7,99,94,87,30.19,30.09,28,6,28,0.11
2013-7-6,73.6,70.1,68.0,72.8,69.5,67.7,99,98,95,30.17,30.11,13,2,13,1.88
2013-7-7,80.4,72.7,68.2,75.9,71.0,67.9,99,95,78,30.18,30.10,14,1,14,0.70
2013-7-8,88.3,76.2,70.0,77.5,73.0,69.4,99,91,66,30.22,30.11,8,0,8,0.01
2013-7-9,86.9,77.5,71.8,80.2,74.6,70.9,99,91,72,30.19,30.07,12,1,12,0.04
2013-7-10,88.5,76.5,69.8,79.7,73.5,68.0,99,91,68,30.10,29.96,17,2,17,0.26
2013-7-11,88.0,75.0,69.3,77.4,71.5,69.0,99,90,66,30.02,29.85,10,1,10,0.12
2013-7-12,85.6,74.9,68.2,73.1,69.6,63.8,99,85,63,29.99,29.82,14,2,14,0.01
2013-7-13,86.0,72.9,62.8,73.0,68.1,61.8,99,86,65,30.08,29.70,10,1,10,0.00
2013-7-14,83.1,75.2,69.1,76.2,71.6,68.5,99,89,71,30.20,30.07,17,1,17,0.20
2013-7-15,89.1,76.8,67.6,73.8,70.9,67.1,99,83,56,30.31,30.20,12,1,12,0.00
2013-7-16,90.9,79.3,69.1,75.6,72.4,62.1,98,81,57,30.34,29.95,16,1,16,0.00
2013-7-17,93.0,78.7,69.1,77.2,72.4,64.7,99,83,58,30.31,30.08,14,1,14,0.19
2013-7-18,90.5,78.2,70.2,76.2,72.5,69.3,98,84,60,30.23,30.07,7,0,10,0.00
2013-7-19,92.8,80.4,71.6,74.8,72.4,69.2,97,79,52,30.14,29.98,31,2,31,0.21
2013-7-20,92.3,79.4,71.1,75.4,71.9,66.1,98,80,53,30.15,29.91,12,1,17,0.12
2013-7-21,86.5,76.7,72.1,74.7,71.5,68.3,94,85,63,30.05,29.95,8,1,18,0.11
2013-7-22,86.0,75.7,70.3,73.2,70.0,66.8,96,83,64,30.12,29.87,8,2,23,0.00
2013-7-23,81.3,75.0,69.4,74.5,70.5,67.1,95,86,72,29.97,29.83,10,2,20,0.32
2013-7-24,87.1,75.8,69.4,73.9,70.8,67.0,97,86,63,29.92,29.84,0,0,1,0.04
2013-7-25,86.9,73.9,63.7,71.3,67.3,62.8,99,82,56,30.05,29.91,0,0,1,0.01
2013-7-26,88.7,74.2,62.2,73.0,66.6,60.8,97,79,52,30.09,29.99,7,1,14,0.00
2013-7-27,86.0,74.6,68.4,73.8,68.9,66.6,96,83,58,30.01,29.90,8,0,14,0.08
2013-7-28,84.4,72.8,65.7,69.8,66.9,61.7,97,83,58,30.08,29.93,5,0,8,0.02
2013-7-29,81.2,68.6,59.7,65.2,61.5,58.3,95,79,54,30.20,30.07,6,0,10,0.00
2013-7-30,86.4,72.7,63.0,70.5,65.7,61.0,96,80,57,30.25,30.12,3,0,8,0.00
2013-7-31,79.0,71.6,68.1,71.3,68.6,66.9,96,91,73,30.16,29.98,7,1,13,0.38
2013-8-1,87.1,76.4,69.1,73.2,69.7,66.1,96,81,57,30.01,29.95,6,1,17,0.00
2013-8-2,88.3,74.3,65.5,70.5,67.2,64.3,97,80,52,30.07,29.98,0,0,1,0.00
2013-8-3,83.5,75.0,66.9,71.8,68.7,64.9,96,82,64,30.08,30.01,0,0,0,0.00
2013-8-4,86.4,76.0,68.5,72.0,68.3,62.2,95,78,57,30.09,30.00,5,0,12,0.00
2013-8-5,86.8,73.2,61.7,68.8,64.4,58.7,94,76,48,30.09,29.99,5,0,12,0.00
2013-8-6,83.7,74.8,70.0,72.8,69.1,66.5,94,83,63,30.03,29.96,5,0,12,0.08
2013-8-7,84.9,74.4,70.9,74.0,70.2,67.3,96,88,66,30.05,29.97,9,1,18,0.04
2013-8-8,88.0,75.9,71.2,74.0,70.9,66.5,95,85,61,30.07,29.99,9,1,17,0.96
2013-8-9,90.7,77.9,70.7,76.6,71.9,69.5,97,83,56,30.09,30.00,10,1,18,0.24
2013-8-10,89.3,77.0,71.8,75.5,72.2,68.2,96,86,60,30.14,30.07,7,1,16,0.02
2013-8-11,87.8,77.2,72.0,74.4,71.9,67.9,96,84,63,30.17,30.08,2,0,13,0.25
2013-8-12,86.7,74.9,70.5,74.8,70.6,67.9,96,87,64,30.13,30.06,8,1,23,0.59
2013-8-13,77.5,77.5,77.5,72.7,72.7,72.7,85,85,85,29.99,29.99,1,1,7,0.00
2013-8-15,63.7,63.7,63.7,57.4,57.4,57.4,80,80,80,30.04,30.04,0,0,0,0.00
2013-10-1,74.3,67.1,63.0,68.4,60.6,58.0,84,80,68,30.12,28.61,2,0,0,0.00
2013-10-2,84.4,69.4,60.3,64.3,60.7,56.9,90,76,49,30.19,30.08,7,1,7,0.00
2013-10-3,84.7,71.6,63.1,64.9,61.3,57.6,89,72,47,30.15,30.06,14,2,14,0.00
2013-10-4,84.2,68.6,59.9,63.9,59.9,56.6,89,75,49,30.87,30.09,8,1,8,0.00
2013-10-5,87.4,71.2,61.5,65.3,61.1,58.1,90,73,46,30.14,30.00,12,2,12,0.00
2013-10-6,82.8,70.9,59.9,63.6,60.3,50.3,88,70,52,30.01,29.83,18,5,18,0.01
2013-10-7,71.8,60.2,53.8,53.5,50.7,45.3,90,73,51,30.06,29.90,13,2,13,0.04
2013-10-8,75.7,60.7,51.4,55.2,49.2,43.8,81,67,48,30.14,30.04,13,2,13,0.00
2013-10-9,78.8,63.0,53.4,59.7,54.0,49.6,90,74,51,30.20,30.10,8,1,8,0.00
2013-10-10,79.7,63.7,54.1,59.4,54.5,51.0,91,74,48,30.17,30.04,10,1,10,0.00
2013-10-11,80.6,62.4,50.4,58.3,52.4,47.2,91,72,45,30.11,30.00,8,1,8,0.00
2013-10-12,81.3,62.9,51.6,59.0,53.2,48.4,90,73,46,30.13,30.02,10,1,10,0.00
2013-10-13,82.2,64.1,51.8,59.1,53.8,48.4,90,72,45,30.23,30.01,9,1,9,0.00
2013-10-14,81.1,66.6,57.7,60.8,56.7,53.1,87,72,49,30.23,30.10,8,1,8,0.00
2013-10-15,73.0,65.7,59.4,58.1,55.3,52.8,85,70,54,30.15,30.04,15,2,15,0.00
2013-10-16,71.6,64.1,59.2,59.1,55.4,52.8,83,74,59,30.07,29.95,13,2,13,0.01
2013-10-17,75.7,63.3,50.5,72.3,57.1,46.4,89,81,65,30.05,29.90,12,2,12,0.18
2013-10-18,68.2,54.4,45.9,51.5,46.8,44.0,94,77,50,30.09,29.96,12,1,12,0.00
2013-10-19,69.3,55.5,45.5,52.4,47.9,39.8,90,77,54,30.04,29.91,13,2,13,0.00
2013-10-20,74.1,49.2,39.0,45.7,40.7,37.0,94,75,45,30.13,29.98,8,1,8,0.00
2013-10-21,70.2,51.4,36.3,49.7,42.7,32.8,94,74,45,30.16,30.00,14,1,14,0.00
2013-10-22,68.9,57.3,47.8,52.1,48.0,43.6,86,72,54,30.03,29.86,6,0,6,0.00
2013-10-23,55.4,47.2,36.1,44.0,38.4,29.3,91,73,52,30.11,29.84,17,2,17,0.00
2013-10-24,59.7,46.6,36.1,42.6,37.3,29.9,87,71,52,30.28,30.08,10,2,10,0.00
2013-10-25,78.8,40.6,29.8,69.0,28.4,22.4,77,63,43,30.46,29.95,14,2,14,0.00
2013-10-26,60.4,43.2,28.0,38.0,31.3,23.1,92,66,39,30.34,30.12,21,4,21,0.00
2013-10-27,79.2,55.0,46.4,68.9,42.9,35.7,89,64,54,30.15,29.87,15,2,15,0.24
2013-10-28,61.9,56.1,48.2,52.3,49.3,44.2,89,78,66,30.27,30.11,13,2,13,0.00
2013-10-29,72.1,59.6,53.2,55.3,52.2,49.3,91,78,53,30.34,30.22,10,1,10,0.00
2013-10-30,90.5,65.1,55.9,71.6,53.8,51.0,86,69,46,30.29,29.96,18,2,18,0.00
2013-10-31,72.3,66.0,60.3,59.3,54.9,50.4,76,68,59,30.14,29.72,25,9,25,0.02
2013-11-1,74.3,63.2,48.9,62.3,52.7,42.7,89,71,46,29.85,29.70,28,4,28,0.41
2013-11-2,66.7,52.1,43.2,48.2,42.2,37.3,91,71,42,30.11,29.83,13,1,13,0.00
2013-11-3,131.9,48.0,39.0,42.0,38.1,34.8,88,70,46,30.30,30.10,68,1,68,0.27
2013-11-4,68.7,49.0,36.5,44.1,38.1,32.1,91,68,43,30.42,29.73,16,2,16,0.00
2013-11-5,65.7,52.4,42.4,44.9,40.1,36.1,79,64,45,30.44,24.36,10,1,10,0.00
2013-11-6,73.2,60.6,47.3,54.5,48.7,40.3,78,66,52,30.30,30.06,21,4,21,0.00
2013-11-7,64.4,52.4,37.8,56.2,42.7,31.3,87,70,47,30.28,30.02,15,3,15,0.26
2013-11-8,58.3,39.1,32.4,32.9,28.5,25.5,80,67,34,30.32,30.25,7,0,7,0.00
2013-11-9,69.8,43.7,30.4,38.2,32.5,25.8,87,66,46,30.34,30.04,13,2,13,0.00
2013-11-10,71.1,52.9,37.6,45.8,39.1,33.5,87,62,36,30.33,30.22,12,1,12,0.00
2013-11-19,51.1,45.0,41.9,31.0,29.9,28.7,64,56,43,29.26,29.19,13,0,13,0.00
2013-11-20,61.5,44.7,30.0,37.1,31.7,24.2,85,62,36,29.38,29.23,8,1,8,0.00
2013-11-21,62.2,54.1,45.5,48.8,42.1,35.3,72,64,57,29.43,29.32,13,2,13,0.00
2013-11-22,58.8,55.5,52.9,55.3,51.2,47.3,91,85,72,29.38,29.26,10,2,10,0.11
2013-11-23,54.1,46.7,33.8,50.6,36.3,19.3,89,68,50,29.45,29.26,12,3,12,0.05
2013-11-24,42.8,30.9,23.7,30.7,12.9,4.6,67,48,26,29.62,29.42,13,4,13,0.00
2013-11-25,52.2,33.7,25.7,28.5,18.9,10.8,82,55,41,29.51,29.19,6,1,6,0.17
2013-11-26,62.4,37.5,33.1,46.4,34.9,28.2,95,90,74,29.26,28.82,7,2,7,1.15
2013-11-27,37.9,31.9,23.2,34.7,21.3,12.8,88,65,55,29.36,28.88,11,4,11,0.01
2013-11-28,69.3,29.0,17.2,27.4,17.6,9.6,78,63,42,29.53,29.20,6,1,6,0.00
2013-11-29,53.8,34.4,22.3,31.2,23.4,16.8,85,66,41,29.63,29.52,6,1,6,0.00
2013-11-30,56.7,36.9,24.6,33.4,25.1,18.6,85,64,37,29.59,29.36,9,1,9,0.00
2013-12-1,67.5,41.9,27.0,65.4,30.1,19.6,93,64,48,29.37,29.06,14,1,57,0.00
2013-12-2,48.6,46.9,44.1,46.1,42.3,36.2,91,84,63,29.07,28.88,5,1,5,0.09
2013-12-3,54.3,51.0,48.0,51.7,48.8,45.9,94,92,91,28.95,28.89,4,0,4,0.01
2013-12-4,72.5,60.8,52.2,65.6,53.5,49.9,96,79,55,29.22,28.92,15,3,15,0.00
2013-12-5,77.0,68.0,63.9,68.5,58.9,55.8,82,73,59,29.16,28.98,13,4,13,0.00
2013-12-6,69.4,51.5,38.7,62.3,45.5,-47.0,91,84,1,29.25,28.94,28,2,28,0.93
2013-12-7,40.8,38.3,36.3,37.0,31.7,29.2,91,77,72,29.46,29.25,12,4,12,0.01
2013-12-8,46.8,40.1,35.6,44.8,37.1,29.7,94,89,76,29.38,29.13,8,2,8,0.50
2013-12-9,54.5,46.4,38.8,47.9,41.7,33.7,93,84,69,29.22,29.09,8,1,8,0.31
2013-12-10,40.6,34.7,25.7,38.3,30.1,19.9,92,83,65,29.43,29.05,6,1,6,0.22
2013-12-11,70.0,34.4,21.9,68.5,24.7,17.8,95,70,45,29.52,29.23,6,1,6,0.00
2013-12-12,43.2,31.5,23.5,23.8,18.9,15.0,71,60,40,29.60,29.46,8,1,8,0.00
2013-12-13,43.5,30.3,21.7,29.0,21.0,14.7,75,69,51,29.49,29.20,4,0,4,0.00
2013-12-14,47.7,42.0,37.0,45.5,37.9,27.5,92,86,68,29.23,28.87,6,1,5,0.48
2013-12-15,43.2,35.8,30.7,39.3,27.6,23.6,86,72,64,29.29,28.97,8,1,8,0.00
2013-12-16,49.6,34.0,29.7,34.6,26.7,23.2,83,75,56,29.32,29.21,8,2,8,0.01
2013-12-17,61.3,44.9,30.9,38.6,31.2,22.7,83,60,42,29.32,29.10,13,2,13,0.00
2013-12-18,49.5,32.6,24.6,27.6,22.0,17.4,80,66,38,29.43,29.31,6,1,6,0.00
2013-12-19,61.7,42.4,25.2,32.5,26.2,17.9,79,56,29,29.38,29.20,10,2,10,0.00
2013-12-20,63.3,52.9,39.0,48.1,36.7,28.2,66,55,44,29.24,29.12,14,4,14,0.00
2013-12-21,70.3,63.5,59.4,62.3,54.9,47.8,85,74,65,29.22,28.88,20,7,20,0.34
2013-12-22,69.3,58.7,55.2,62.5,53.3,50.2,88,83,66,29.12,28.85,18,4,18,1.05
2013-12-23,55.2,43.8,28.8,50.6,36.8,22.1,89,76,62,29.42,29.10,7,2,7,0.01
2013-12-24,72.3,30.1,23.5,64.3,19.2,13.1,81,65,43,29.55,29.23,10,1,10,0.00
2013-12-25,74.7,28.8,18.5,71.9,17.2,10.4,91,63,43,29.52,29.23,10,2,10,0.00
2013-12-26,70.3,35.0,24.8,68.2,23.8,17.5,93,64,44,29.46,29.22,6,1,6,0.00
2013-12-27,55.2,32.4,24.3,31.7,22.8,17.5,84,69,35,29.53,29.38,6,1,6,0.00
2013-12-28,41.2,34.1,26.1,36.5,28.0,18.6,93,79,66,29.45,29.03,5,0,5,0.45
2013-12-29,45.7,39.4,35.6,43.5,37.1,30.6,95,92,82,29.12,28.94,5,0,5,0.21
2013-12-30,41.5,38.6,36.3,39.4,32.0,28.0,93,78,65,29.30,29.10,5,1,5,0.00
2013-12-31,42.3,32.1,27.0,28.3,24.6,19.8,87,74,54,29.52,29.28,6,1,6,0.00
2014-1-1,52.2,33.8,23.7,34.4,25.7,19.3,87,73,49,29.41,29.15,8,1,8,0.00
2014-1-2,45.7,36.9,22.1,43.2,29.3,9.9,91,74,58,29.28,28.87,10,2,10,0.20